X Fechar
foto
Salvar nos Favoritos

X Fechar
foto
Clique e saiba mais
Clique e saiba mais
Clique e saiba mais
Clique e saiba mais
Clique e saiba mais
Clique e saiba mais

Edgers Racing

KTM Sacramento

Toro Sports

SP Race Park

JPS Racing

MotoX Pneus

Arenafama

Clique e saiba mais

> Notícias > Últimas Notícias

MXGP 2019: Resultados e Vídeo das classificatórias em Orlyonok, Rússia
Publicado em: 08/06/2019

Romain Febvre e Jorge Prado vencem as classificatórias de sábado na Rússia
Redação MotoX.com.br: Lucidio Arruda - Fotos: Youthstream

Antonio Cairoli sofreu forte queda e abandonou, mas confirmou presença nas corridas de amanhã


Romain Febvre

O Mundial de Motocross viajou à Orlyonok, na Rússia, para a disputa da oitava etapa do Mundial de Motocross 2019. Neste sábado (8) foram realizadas as baterias que definiram o alinhamento no gate das corridas principais de amanhã. Na classe MXGP o francês Romain Febvre liderou todas as voltas e recebeu a bandeirada pouco mais de um segundo e meio a frente de Tim Gajser.

A etapa marca também o primeiro GP no ano do atual campeão Jeffrey Herlings. O holandês sofreu uma queda na primeira volta e salvou a 16ª posição na classificatória. Ao levantar mancando ficou evidente que o pé fraturado na pré-temporada ainda não está 100%.


Tim Gajser

A classificatória também não foi nada boa para Antonio Cairoli, que sofreu um forte queda quando ocupava a quarta posição. O italiano atipicamente demorou para levantar e em seguida abandonou a prova. É o segundo GP consecutivo que Cairoli fica entre as últimas escolhas de gate para as provas principais.

Vídeo



Resultados

P # MXGP País Bike Time V Diff Gap M.V. Speed
1 461 Febvre, Romain FRA Yam 24:57.281 15 0:00.000 0:00.000 1:38.242 61.9
2 243 Gajser, Tim SLO Hon 24:58.895 15 0:01.614 0:01.614 1:37.774 62.2
3 21 Paulin, Gautier FRA Yam 25:09.689 15 0:12.408 0:10.794 1:37.378 62.4
4 99 Anstie, Max GBR KTM 25:21.066 15 0:23.785 0:11.377 1:38.883 61.5
5 91 Seewer, Jeremy SUI Yam 25:25.357 15 0:28.076 0:04.291 1:39.257 61.2
6 25 Desalle, Clement BEL Kaw 25:29.070 15 0:31.789 0:03.713 1:39.374 61.2
7 27 Jasikonis, Arminas LTU Hus 25:31.296 15 0:34.015 0:02.226 1:39.751 60.9
8 911 Tixier, Jordi FRA KTM 25:34.508 15 0:37.227 0:03.212 1:39.605 61
9 4 Tonus, Arnaud SUI Yam 25:37.854 15 0:40.573 0:03.346 1:39.863 60.9
10 41 Jonass, Pauls LAT Hus 25:40.680 15 0:43.399 0:02.826 1:39.336 61.2
11 777 Bobryshev, Evgeny RUS Kaw 25:42.655 15 0:45.374 0:01.975 1:40.010 60.8
12 6 Paturel, Benoit FRA Kaw 25:43.198 15 0:45.917 0:00.543 1:40.065 60.8
13 89 Van Horebeek, Jeremy BEL Hon 25:45.998 15 0:48.717 0:02.800 1:40.007 60.8
14 259 Coldenhoff, Glenn NED KTM 25:53.135 15 0:55.854 0:07.137 1:40.161 60.7
15 22 Strijbos, Kevin BEL Yam 25:58.094 15 1:00.813 0:04.959 1:41.164 60.1
16 84 Herlings, Jeffrey NED KTM 26:01.295 15 1:04.014 0:03.201 1:39.774 60.9
17 33 Lieber, Julien BEL Kaw 26:03.536 15 1:06.255 0:02.241 1:40.238 60.6
18 152 Petrov, Petar BUL KTM 26:12.549 15 1:15.268 0:09.013 1:42.169 59.5
19 7 Leok, Tanel EST Hus 26:13.976 15 1:16.695 0:01.427 1:41.963 59.6
20 18 Brylyakov, Vsevolod RUS Yam 26:22.691 15 1:25.410 0:08.715 1:42.146 59.5
21 189 Bogers, Brian NED Hon 26:30.937 15 1:33.656 0:08.246 1:42.225 59.5
22 599 Mikhaylov, Evgeny RUS Hus 26:37.758 15 1:40.477 0:06.821 1:42.664 59.2
23 555 Guryev, Artem RUS Hus 25:01.806 14 1 lap 1 lap 1:44.297 58.3
24 77 Lupino, Alessandro ITA Kaw 17:06.085 10 5 laps 4 laps 1:39.688 61
25 222 Cairoli, Antonio ITA KTM 16:25.015 9 6 laps 1 lap 1:38.094 62
26 100 Searle, Tommy GBR Kaw 10:32.271 6 9 laps 3 laps 1:40.146 60.7
27 128 Monticelli, Ivo ITA KTM 11:20.727 6 9 laps 0:48.456 1:40.228 60.7

MX2 - Prado domina classificatória


Jorge Prado

Com quase 10 segundos de vantagem o espanhol Jorge Prado controlou a corrida da classe MX2, com seu principal adversário na disputa pelo título Thomas Kjer Olsen em segundo.

A pista dura e lisa pregou algumas peças nos jovens pilotos, como no caso de Ben Watson, que perdeu a frente na entrada de um salto e foi ejetado de sua moto.

O brasileiro Gustavo Pessoa ficou com a 20ª posição.

Resultado

P # MX2 País Bike Time V Diff Gap M.V. Speed
1 61 Prado, Jorge ESP KTM 23:33.278 14 0:00.000 0:00.000 1:39.044 61.4
2 19 Olsen, Thomas Kjer DEN Hus 23:42.364 14 0:09.086 0:09.086 1:39.145 61.3
3 193 Geerts, Jago BEL Yam 23:53.940 14 0:20.662 0:11.576 1:40.527 60.5
4 43 Evans, Mitchell AUS Hon 23:59.098 14 0:25.820 0:05.158 1:40.535 60.5
5 747 Cervellin, Michele ITA Yam 24:04.978 14 0:31.700 0:05.880 1:40.343 60.6
6 28 Vialle, Tom FRA KTM 24:07.656 14 0:34.378 0:02.678 1:40.751 60.3
7 172 Boisrame, Mathys FRA Hon 24:14.552 14 0:41.274 0:06.896 1:41.626 59.8
8 57 Sanayei, Darian USA Kaw 24:15.334 14 0:42.056 0:00.782 1:41.832 59.7
9 14 Beaton, Jed AUS Hus 24:15.618 14 0:42.340 0:00.284 1:41.485 59.9
10 29 Jacobi, Henry GER Kaw 24:16.755 14 0:43.477 0:01.137 1:40.811 60.3
11 98 Vaessen, Bas NED KTM 24:17.175 14 0:43.897 0:00.420 1:40.864 60.3
12 66 Larranaga Olano, Iker ESP KTM 24:23.943 14 0:50.665 0:06.768 1:41.835 59.7
13 225 Strubhart Moreau, Brian FRA Kaw 24:25.509 14 0:52.231 0:01.566 1:41.728 59.8
14 101 Pichon, Zachary FRA Hon 24:26.841 14 0:53.563 0:01.332 1:42.120 59.5
15 161 Östlund, Alvin SWE Hus 24:30.433 14 0:57.155 0:03.592 1:42.534 59.3
16 811 Sterry, Adam GBR Kaw 24:33.191 14 0:59.913 0:02.758 1:42.404 59.4
17 102 Sikyna, Richard SVK KTM 24:34.624 14 1:01.346 0:01.433 1:42.661 59.2
18 53 Walsh, Dylan NZL Hus 24:39.722 14 1:06.444 0:05.098 1:42.351 59.4
19 35 Harrison, Mitchell USA Kaw 24:40.670 14 1:07.392 0:00.948 1:42.226 59.5
20 56 Pessoa, Gustavo BRA Kaw 24:45.168 14 1:11.890 0:04.498 1:43.339 58.8
21 783 Toriani, Enzo FRA Hus 24:47.362 14 1:14.084 0:02.194 1:42.871 59.1
22 46 Pootjes, Davy NED Hus 24:48.117 14 1:14.839 0:00.755 1:42.100 59.5
23 32 Van doninck, Brent BEL Hon 24:49.085 14 1:15.807 0:00.968 1:42.734 59.2
24 75 Roosiorg, Hardi EST KTM 24:54.518 14 1:21.240 0:05.433 1:43.107 59
25 919 Watson, Ben GBR Yam 24:58.004 14 1:24.726 0:03.486 1:41.020 60.2
26 959 Renaux, Maxime FRA Yam 25:01.751 14 1:28.473 0:03.747 1:42.432 59.3
27 142 Haavisto, Jere FIN Yam 25:14.850 14 1:41.572 0:13.099 1:45.421 57.7
28 313 Polak, Petr CZE KTM 25:16.650 14 1:43.372 0:01.800 1:44.615 58.1
29 282 Kahrle, Hampus SWE KTM 17:28.593 9 5 laps 5 laps 1:44.039 58.4





Curso MotoX
JPS Racing

© 2000 - 2018 MotoX MX1 Internet